createdAt,value
2022-09-18T00:05:10.439Z,10.00
2022-09-18T00:10:32.516Z,9.90
2022-09-18T00:15:56.419Z,10.00
2022-09-18T00:21:20.216Z,9.90
2022-09-18T00:26:42.301Z,9.90
2022-09-18T00:32:04.403Z,9.80
2022-09-18T00:37:27.648Z,9.70
2022-09-18T00:42:49.869Z,9.70
2022-09-18T00:48:11.968Z,9.70
2022-09-18T00:53:36.071Z,9.70
2022-09-18T00:58:58.784Z,9.60
2022-09-18T01:04:20.934Z,9.60
2022-09-18T01:10:01.608Z,9.40
2022-09-18T01:15:44.094Z,9.50
2022-09-18T01:21:15.627Z,9.50
2022-09-18T01:26:59.059Z,9.50
2022-09-18T01:32:46.233Z,9.40
2022-09-18T01:38:19.461Z,9.40
2022-09-18T01:43:44.104Z,9.30
2022-09-18T01:49:12.309Z,9.30
2022-09-18T01:54:42.789Z,9.30
2022-09-18T02:00:12.031Z,9.30
2022-09-18T02:05:45.775Z,9.20
2022-09-18T02:11:13.675Z,9.20
2022-09-18T02:16:45.916Z,9.20
2022-09-18T02:22:14.509Z,9.10
2022-09-18T02:27:39.630Z,9.10
2022-09-18T02:33:02.583Z,9.10
2022-09-18T02:39:03.433Z,9.10
2022-09-18T02:44:34.335Z,9.10
2022-09-18T02:50:18.574Z,8.90
2022-09-18T02:55:59.352Z,8.90
2022-09-18T03:01:24.984Z,8.90
2022-09-18T03:06:47.789Z,8.90
2022-09-18T03:12:10.521Z,8.90
2022-09-18T03:17:36.499Z,8.90
2022-09-18T03:22:58.827Z,8.80
2022-09-18T03:28:21.020Z,8.80
2022-09-18T03:33:43.215Z,8.80
2022-09-18T03:39:05.862Z,8.70
2022-09-18T03:44:29.014Z,8.70
2022-09-18T03:49:53.774Z,8.60
2022-09-18T03:55:16.912Z,8.50
2022-09-18T04:00:57.613Z,8.40
2022-09-18T04:06:28.489Z,8.40
2022-09-18T04:12:06.554Z,8.30
2022-09-18T04:17:28.830Z,8.30
2022-09-18T04:22:52.536Z,8.20
2022-09-18T04:28:14.713Z,8.20
2022-09-18T04:33:40.281Z,8.20
2022-09-18T04:39:04.601Z,8.20
2022-09-18T04:44:27.083Z,8.20
2022-09-18T04:49:49.452Z,8.20
2022-09-18T04:55:11.666Z,8.10
2022-09-18T05:00:38.256Z,8.10
2022-09-18T05:06:01.165Z,8.10
2022-09-18T05:11:24.007Z,8.20
2022-09-18T05:16:46.479Z,8.20
2022-09-18T05:22:28.149Z,8.30
2022-09-18T05:27:58.436Z,8.30
2022-09-18T05:33:23.841Z,8.30
2022-09-18T05:38:45.976Z,8.50
2022-09-18T05:44:08.255Z,8.50
2022-09-18T05:49:33.022Z,8.60
2022-09-18T05:54:55.349Z,8.60
2022-09-18T06:00:17.548Z,8.70
2022-09-18T06:05:43.119Z,8.80
2022-09-18T06:11:08.521Z,8.90
2022-09-18T06:16:31.796Z,9.00
2022-09-18T06:22:01.076Z,9.10
2022-09-18T06:27:23.296Z,9.20
2022-09-18T06:32:45.433Z,9.20
2022-09-18T06:38:08.030Z,9.30
2022-09-18T06:43:34.007Z,9.30
2022-09-18T06:49:21.891Z,9.30
2022-09-18T06:54:44.008Z,9.50
2022-09-18T07:00:13.945Z,9.60
2022-09-18T07:05:41.030Z,9.50
2022-09-18T07:11:03.611Z,9.70
2022-09-18T07:16:26.442Z,9.80
2022-09-18T07:21:49.056Z,9.90
2022-09-18T07:27:11.200Z,9.80
2022-09-18T07:32:36.287Z,9.90
2022-09-18T07:38:05.947Z,10.00
2022-09-18T07:43:44.733Z,10.10
2022-09-18T07:49:07.329Z,10.40
2022-09-18T07:54:31.190Z,10.50
2022-09-18T07:59:58.248Z,10.30
2022-09-18T08:05:22.293Z,10.10
2022-09-18T08:10:55.959Z,10.30
2022-09-18T08:16:47.604Z,10.50
2022-09-18T08:22:41.565Z,10.70
2022-09-18T08:28:05.943Z,11.30
2022-09-18T08:33:33.381Z,11.50
2022-09-18T08:38:56.150Z,11.30
2022-09-18T08:45:03.921Z,11.40
2022-09-18T08:50:38.858Z,11.90
2022-09-18T08:56:06.861Z,12.20
2022-09-18T09:01:53.671Z,11.90
2022-09-18T09:07:57.345Z,11.70
2022-09-18T09:13:52.453Z,11.50
2022-09-18T09:19:26.736Z,11.10
2022-09-18T09:25:16.280Z,11.60
2022-09-18T09:31:06.120Z,12.10
2022-09-18T09:37:01.405Z,11.70
2022-09-18T09:42:41.591Z,11.70
2022-09-18T09:48:15.470Z,11.50
2022-09-18T09:53:46.755Z,11.90
2022-09-18T09:59:55.391Z,14.30
2022-09-18T10:05:53.604Z,15.30
2022-09-18T10:11:18.330Z,13.70
2022-09-18T10:16:53.356Z,12.60
2022-09-18T10:22:20.708Z,11.60
2022-09-18T10:27:24.785Z,10.90
2022-09-18T10:32:41.775Z,10.80
2022-09-18T10:38:00.050Z,11.10
2022-09-18T10:43:19.611Z,11.20
2022-09-18T10:48:28.050Z,11.30
2022-09-18T10:53:33.839Z,11.60
2022-09-18T10:58:45.672Z,11.80
2022-09-18T11:04:07.048Z,11.90
2022-09-18T11:09:12.537Z,11.80
2022-09-18T11:14:25.381Z,11.60
2022-09-18T11:19:39.739Z,11.10
2022-09-18T11:25:15.301Z,10.60
2022-09-18T11:30:32.229Z,10.40
2022-09-18T11:35:45.882Z,10.60
2022-09-18T11:41:59.947Z,10.40
2022-09-18T11:47:09.775Z,10.50
2022-09-18T11:52:21.912Z,10.90
2022-09-18T11:58:07.228Z,11.80
2022-09-18T12:03:19.374Z,12.80
2022-09-18T12:08:46.968Z,12.20
2022-09-18T12:14:13.135Z,12.00
2022-09-18T12:19:33.741Z,11.30
2022-09-18T12:24:42.475Z,10.70
2022-09-18T12:29:45.678Z,10.90
2022-09-18T12:35:15.505Z,11.70
2022-09-18T12:40:54.092Z,11.80
2022-09-18T12:46:22.587Z,11.40
2022-09-18T12:51:42.075Z,11.20
2022-09-18T12:57:06.269Z,11.10
2022-09-18T13:02:32.204Z,11.20
2022-09-18T13:07:50.769Z,11.40
2022-09-18T13:13:05.743Z,11.50
2022-09-18T13:18:12.748Z,11.60
2022-09-18T13:23:23.024Z,11.50
2022-09-18T13:28:28.885Z,11.40
2022-09-18T13:33:31.992Z,11.40
2022-09-18T13:38:35.396Z,11.00
2022-09-18T13:43:40.540Z,10.90
2022-09-18T13:48:47.027Z,10.70
2022-09-18T13:54:09.788Z,10.60
2022-09-18T13:59:22.925Z,10.50
2022-09-18T14:04:41.080Z,10.70
2022-09-18T14:09:53.092Z,10.60
2022-09-18T14:15:15.857Z,10.40
2022-09-18T14:20:22.033Z,10.20
2022-09-18T14:25:46.242Z,10.00
2022-09-18T14:31:09.872Z,9.70
2022-09-18T14:36:14.755Z,9.70
2022-09-18T14:41:27.389Z,9.70
2022-09-18T14:46:32.850Z,9.70
2022-09-18T14:51:54.629Z,9.80
2022-09-18T14:57:03.007Z,9.90
2022-09-18T15:02:35.108Z,9.70
2022-09-18T15:07:40.261Z,9.60
2022-09-18T15:12:43.880Z,9.60
2022-09-18T15:17:51.180Z,9.60
2022-09-18T15:22:54.089Z,9.80
2022-09-18T15:27:58.120Z,9.80
2022-09-18T15:33:05.022Z,9.70
2022-09-18T15:38:14.888Z,9.60
2022-09-18T15:43:35.618Z,9.60
2022-09-18T15:48:48.443Z,9.60
2022-09-18T15:54:11.226Z,9.60
2022-09-18T15:59:30.595Z,9.50
2022-09-18T16:04:35.239Z,9.50
2022-09-18T16:09:44.155Z,9.40
2022-09-18T16:14:59.683Z,9.40
2022-09-18T16:20:23.268Z,9.30
2022-09-18T16:25:30.248Z,9.40
2022-09-18T16:30:33.877Z,9.30
2022-09-18T16:35:37.973Z,9.20
2022-09-18T16:40:41.432Z,9.20
2022-09-18T16:45:44.513Z,9.10
2022-09-18T16:50:48.342Z,9.00
2022-09-18T16:55:53.870Z,9.00
2022-09-18T17:00:57.808Z,8.80
2022-09-18T17:06:02.355Z,8.80
2022-09-18T17:11:06.587Z,8.70
2022-09-18T17:16:10.324Z,8.70
2022-09-18T17:21:14.127Z,8.70
2022-09-18T17:26:16.822Z,8.70
2022-09-18T17:31:20.022Z,8.80
2022-09-18T17:36:22.622Z,8.80
2022-09-18T17:41:25.112Z,8.70
2022-09-18T17:46:28.435Z,8.70
2022-09-18T17:51:32.122Z,8.70
2022-09-18T17:56:34.618Z,8.70
2022-09-18T18:01:40.848Z,8.70
2022-09-18T18:06:43.818Z,8.70
2022-09-18T18:11:47.030Z,8.70
2022-09-18T18:16:52.561Z,8.60
2022-09-18T18:21:55.563Z,8.60
2022-09-18T18:26:58.567Z,8.60
2022-09-18T18:32:03.673Z,8.60
2022-09-18T18:37:06.838Z,8.60
2022-09-18T18:42:12.298Z,8.60
2022-09-18T18:47:15.102Z,8.70
2022-09-18T18:52:18.863Z,8.80
2022-09-18T18:57:22.022Z,8.80
2022-09-18T19:02:28.097Z,8.80
2022-09-18T19:07:31.507Z,8.80
2022-09-18T19:12:34.612Z,8.70
2022-09-18T19:17:37.511Z,8.60
2022-09-18T19:22:40.410Z,8.50
2022-09-18T19:27:43.008Z,8.40
2022-09-18T19:32:46.731Z,8.40
2022-09-18T19:37:49.828Z,8.30
2022-09-18T19:42:59.498Z,8.20
2022-09-18T19:48:04.432Z,8.30
2022-09-18T19:53:07.129Z,8.30
2022-09-18T19:58:13.475Z,8.30
2022-09-18T20:03:18.251Z,8.30
2022-09-18T20:08:21.327Z,8.30
2022-09-18T20:13:26.304Z,8.40
2022-09-18T20:18:29.000Z,8.40
2022-09-18T20:23:32.105Z,8.30
2022-09-18T20:28:36.565Z,8.30
2022-09-18T20:33:39.342Z,8.20
2022-09-18T20:38:43.673Z,8.10
2022-09-18T20:43:48.501Z,8.10
2022-09-18T20:48:57.250Z,8.10
2022-09-18T20:53:59.846Z,8.00
2022-09-18T20:59:06.839Z,8.00
2022-09-18T21:04:17.494Z,7.90
2022-09-18T21:09:20.014Z,7.90
2022-09-18T21:14:24.353Z,7.80
2022-09-18T21:19:27.962Z,7.70
2022-09-18T21:24:32.502Z,7.70
2022-09-18T21:29:34.887Z,7.70
2022-09-18T21:34:37.279Z,7.70
2022-09-18T21:39:39.768Z,7.70
2022-09-18T21:44:42.242Z,7.70
2022-09-18T21:49:44.748Z,7.70
2022-09-18T21:54:47.578Z,7.70
2022-09-18T21:59:49.694Z,7.70
2022-09-18T22:04:55.079Z,7.70
2022-09-18T22:09:57.005Z,7.80
2022-09-18T22:14:58.836Z,7.80
2022-09-18T22:20:00.635Z,8.00
2022-09-18T22:25:03.262Z,8.10
2022-09-18T22:30:10.354Z,8.20
2022-09-18T22:35:12.194Z,8.10
2022-09-18T22:40:14.141Z,8.00
2022-09-18T22:45:16.233Z,8.10
2022-09-18T22:50:18.038Z,8.20
2022-09-18T22:55:21.707Z,8.20
2022-09-18T23:00:23.527Z,8.20
2022-09-18T23:05:25.376Z,8.20
2022-09-18T23:10:27.220Z,8.30
2022-09-18T23:15:29.100Z,8.30
2022-09-18T23:20:31.046Z,8.30
2022-09-18T23:25:35.899Z,8.30
2022-09-18T23:30:37.717Z,8.40
2022-09-18T23:35:39.570Z,8.40
2022-09-18T23:40:43.091Z,8.40
2022-09-18T23:45:47.514Z,8.30
2022-09-18T23:50:51.211Z,8.50
2022-09-18T23:55:53.099Z,8.50
